Time;durP1;ratioP1;P1;durP2;ratioP2;P2;SDS_P1;SDS_P2;PMS_P1;PMS_P2;Temp;Humidity;BMP_temperature;BMP_pressure;BME280_temperature;BME280_humidity;BME280_pressure;Samples;Min_cycle;Max_cycle;Signal;HPM_P1;HPM_P2
2021/08/04 00:00:06;;;;;;;2.60;2.10;;;;;;;10.51;100.00;92964.16;2090383;28;20390;-88
2021/08/04 00:01:07;;;;;;;7.07;2.58;;;;;;;10.50;100.00;92960.72;2099341;28;20021;-89
2021/08/04 00:02:08;;;;;;;2.50;1.92;;;;;;;10.55;100.00;92960.22;2096929;28;20118;-88
2021/08/04 00:03:08;;;;;;;3.45;1.80;;;;;;;10.46;100.00;92960.06;2090436;28;20058;-86
2021/08/04 00:04:10;;;;;;;3.65;1.80;;;;;;;10.50;100.00;92954.63;2102846;28;20027;-87
2021/08/04 00:05:11;;;;;;;3.53;2.10;;;;;;;10.53;100.00;92953.78;2102292;28;20554;-89
2021/08/04 00:06:12;;;;;;;2.38;2.03;;;;;;;10.54;100.00;92952.63;2105205;27;20044;-87
2021/08/04 00:07:13;;;;;;;4.82;2.10;;;;;;;10.52;100.00;92954.97;2115549;28;20019;-87
2021/08/04 00:08:14;;;;;;;2.67;1.67;;;;;;;10.54;100.00;92958.72;2099251;28;20051;-88
2021/08/04 00:09:15;;;;;;;2.00;1.80;;;;;;;10.47;100.00;92958.88;2092769;28;20063;-88
2021/08/04 00:10:18;;;;;;;2.05;1.85;;;;;;;10.45;100.00;92958.56;2090476;28;20094;-89
2021/08/04 00:11:18;;;;;;;2.13;1.90;;;;;;;10.48;100.00;92959.63;2097185;28;20055;-89
2021/08/04 00:12:19;;;;;;;2.40;1.65;;;;;;;10.49;100.00;92955.78;2115385;28;20020;-87
2021/08/04 00:13:20;;;;;;;3.15;1.92;;;;;;;10.48;100.00;92954.28;2106715;28;20107;-86
2021/08/04 00:14:22;;;;;;;2.20;2.00;;;;;;;10.46;100.00;92946.69;2100360;28;20017;-88
2021/08/04 00:15:23;;;;;;;2.50;1.90;;;;;;;10.47;100.00;92953.53;2099767;28;20024;-89
2021/08/04 00:16:24;;;;;;;4.00;2.17;;;;;;;10.47;100.00;92952.78;2098378;28;20020;-87
2021/08/04 00:17:25;;;;;;;1.98;1.63;;;;;;;10.43;100.00;92950.19;2103014;28;20016;-87
2021/08/04 00:18:26;;;;;;;4.78;2.15;;;;;;;10.41;100.00;92957.16;2106614;28;20469;-87
2021/08/04 00:19:27;;;;;;;3.63;1.73;;;;;;;10.45;100.00;92960.50;2090271;28;20116;-87
2021/08/04 00:20:28;;;;;;;5.63;2.17;;;;;;;10.49;100.00;92959.22;2098559;28;20029;-88
2021/08/04 00:21:30;;;;;;;1.77;1.67;;;;;;;10.40;100.00;92952.94;2115392;28;20034;-85
2021/08/04 00:22:31;;;;;;;1.73;1.52;;;;;;;10.43;100.00;92958.22;2106866;28;20107;-86
2021/08/04 00:23:32;;;;;;;2.00;1.83;;;;;;;10.41;100.00;92960.56;2102328;28;20025;-90
2021/08/04 00:24:33;;;;;;;3.72;2.08;;;;;;;10.42;100.00;92956.72;2098244;28;20074;-87
2021/08/04 00:25:34;;;;;;;3.85;1.90;;;;;;;10.38;100.00;92952.63;2092392;28;20032;-86
2021/08/04 00:26:35;;;;;;;2.05;1.85;;;;;;;10.38;100.00;92960.66;2090111;28;20441;-87
2021/08/04 00:27:36;;;;;;;4.80;2.00;;;;;;;10.40;100.00;92963.63;2099826;28;20021;-86
2021/08/04 00:28:37;;;;;;;2.60;1.90;;;;;;;10.42;100.00;92955.97;2092992;28;20112;-88
2021/08/04 00:29:38;;;;;;;2.97;2.30;;;;;;;10.45;100.00;92966.59;2090237;28;20025;-87
2021/08/04 00:30:39;;;;;;;3.78;2.03;;;;;;;10.43;100.00;92963.56;2113568;28;20019;-87
2021/08/04 00:31:40;;;;;;;2.75;2.28;;;;;;;10.39;100.00;92962.91;2106860;28;20020;-87
2021/08/04 00:32:41;;;;;;;3.13;2.83;;;;;;;10.44;100.00;92962.38;2110747;28;20024;-89
2021/08/04 00:33:42;;;;;;;4.97;2.00;;;;;;;10.48;100.00;92959.63;2102633;28;20102;-86
2021/08/04 00:34:43;;;;;;;3.70;2.40;;;;;;;10.48;100.00;92963.06;2090242;28;20025;-86
2021/08/04 00:35:44;;;;;;;2.28;1.90;;;;;;;10.47;100.00;92964.22;2098728;28;20024;-87
2021/08/04 00:36:45;;;;;;;2.42;2.20;;;;;;;10.45;100.00;92958.56;2100378;28;20028;-87
2021/08/04 00:37:46;;;;;;;4.13;2.30;;;;;;;10.49;100.00;92955.78;2089940;28;20048;-87
2021/08/04 00:38:46;;;;;;;2.28;2.08;;;;;;;10.41;100.00;92955.22;2096400;28;20385;-86
2021/08/04 00:39:48;;;;;;;2.67;2.17;;;;;;;10.46;100.00;92956.66;2091918;28;20024;-89
2021/08/04 00:40:49;;;;;;;2.60;2.20;;;;;;;10.47;100.00;92953.53;2102218;28;20028;-87
2021/08/04 00:41:51;;;;;;;2.95;1.90;;;;;;;10.50;100.00;92952.72;2107002;28;20031;-87
2021/08/04 00:42:52;;;;;;;2.38;1.98;;;;;;;10.45;100.00;92950.56;2103011;28;20044;-86
2021/08/04 00:43:53;;;;;;;3.53;2.05;;;;;;;10.46;100.00;92952.03;2102717;28;20473;-87
2021/08/04 00:44:54;;;;;;;2.40;1.88;;;;;;;10.45;100.00;92949.81;2098379;28;20124;-87
2021/08/04 00:45:55;;;;;;;2.33;2.10;;;;;;;10.47;100.00;92950.13;2102889;28;20020;-87
2021/08/04 00:46:59;;;;;;;2.00;1.80;;;;;;;10.50;100.00;92946.63;2112243;28;20024;-86
2021/08/04 00:48:01;;;;;;;2.08;1.73;;;;;;;10.49;100.00;92948.53;2090864;28;20066;-89
2021/08/04 00:49:02;;;;;;;2.08;1.88;;;;;;;10.52;100.00;92946.94;2098604;28;20020;-89
2021/08/04 00:50:04;;;;;;;3.33;1.95;;;;;;;10.52;100.00;92950.38;2098317;28;20017;-86
2021/08/04 00:51:05;;;;;;;2.33;2.13;;;;;;;10.47;100.00;92944.78;2107284;28;20024;-87
2021/08/04 00:52:06;;;;;;;7.20;2.00;;;;;;;10.43;100.00;92947.53;2108772;28;20016;-87
2021/08/04 00:53:25;;;;;;;2.20;2.00;;;;;;;10.43;100.00;92934.16;2106573;28;20023;-88
2021/08/04 00:54:25;;;;;;;2.13;1.75;;;;;;;10.41;100.00;92939.19;2096241;28;20027;-90
2021/08/04 00:55:27;;;;;;;1.92;1.75;;;;;;;10.44;100.00;92935.66;2097449;28;20063;-87
2021/08/04 00:56:28;;;;;;;2.45;2.03;;;;;;;10.44;100.00;92943.69;2093186;28;20033;-88
2021/08/04 00:57:29;;;;;;;2.42;1.90;;;;;;;10.44;100.00;92943.69;2103483;28;20040;-88
2021/08/04 00:58:34;;;;;;;3.78;1.80;;;;;;;10.41;100.00;92943.78;2114870;28;20031;-89
2021/08/04 00:59:35;;;;;;;5.30;3.03;;;;;;;10.40;100.00;92943.00;2098804;28;20173;-88
2021/08/04 01:00:44;;;;;;;3.20;2.10;;;;;;;10.39;100.00;92944.19;2098874;28;20028;-87
2021/08/04 01:02:00;;;;;;;2.05;1.85;;;;;;;10.43;100.00;92944.84;2099023;28;20108;-89
2021/08/04 01:03:06;;;;;;;1.95;1.75;;;;;;;10.45;100.00;92945.22;2094945;28;20036;-89
2021/08/04 01:04:11;;;;;;;2.30;2.10;;;;;;;10.45;100.00;92941.78;2105231;28;20035;-87
2021/08/04 01:05:17;;;;;;;6.32;2.05;;;;;;;10.46;100.00;92943.28;2107834;27;20027;-90
2021/08/04 01:06:29;;;;;;;1.80;1.60;;;;;;;10.46;100.00;92943.28;2100243;28;20082;-87
2021/08/04 01:07:42;;;;;;;2.30;2.10;;;;;;;10.41;100.00;92944.53;2104875;28;20054;-88
2021/08/04 01:08:50;;;;;;;1.70;1.60;;;;;;;10.42;100.00;92945.28;2106956;28;20086;-89
2021/08/04 01:10:21;;;;;;;1.85;1.75;;;;;;;10.45;100.00;92944.47;2099189;28;20466;-89
2021/08/04 01:11:26;;;;;;;4.38;2.00;;;;;;;10.45;100.00;92945.22;2104000;28;20048;-87
2021/08/04 01:12:36;;;;;;;3.92;1.63;;;;;;;10.46;100.00;92943.28;2110700;28;20054;-87
2021/08/04 01:13:44;;;;;;;;;;;;;;;10.46;100.00;92936.00;2112728;28;20762;-88
2021/08/04 01:14:48;;;;;;;1.92;1.75;;;;;;;10.47;100.00;92937.50;2098766;28;19912;-88
2021/08/04 01:16:13;;;;;;;2.00;1.80;;;;;;;10.46;100.00;92944.03;2106601;28;20062;-88
2021/08/04 01:17:17;;;;;;;2.33;1.88;;;;;;;10.46;100.00;92948.63;2092161;28;20036;-87
2021/08/04 01:18:25;;;;;;;6.07;1.70;;;;;;;10.45;100.00;92942.53;2090831;28;20128;-88
2021/08/04 01:19:53;;;;;;;2.88;1.63;;;;;;;10.43;100.00;92938.75;2107395;28;20085;-90
2021/08/04 01:20:54;;;;;;;3.33;1.70;;;;;;;10.39;100.00;92944.19;2121474;27;20098;-87
2021/08/04 01:22:07;;;;;;;2.08;1.73;;;;;;;10.42;100.00;92937.28;2112453;28;20038;-88
2021/08/04 01:23:11;;;;;;;6.93;2.30;;;;;;;10.44;100.00;92949.03;2108401;28;20073;-89
2021/08/04 01:24:24;;;;;;;3.35;1.85;;;;;;;10.43;100.00;92944.09;2110357;28;20062;-87
2021/08/04 01:25:32;;;;;;;3.17;1.77;;;;;;;10.43;100.00;92942.19;2096647;28;20024;-89
2021/08/04 01:26:42;;;;;;;2.92;1.90;;;;;;;10.34;100.00;92942.03;2099987;28;20624;-87
2021/08/04 01:27:48;;;;;;;2.45;2.05;;;;;;;10.35;100.00;92940.84;2096319;28;20017;-88
2021/08/04 01:28:52;;;;;;;2.70;2.40;;;;;;;10.43;100.00;92931.50;2092033;28;20506;-88
2021/08/04 01:29:54;;;;;;;2.75;1.88;;;;;;;10.40;100.00;92948.34;2090430;28;20474;-86
2021/08/04 01:31:01;;;;;;;2.70;1.83;;;;;;;10.37;100.00;92941.19;2098744;28;20020;-86
2021/08/04 01:32:02;;;;;;;3.80;1.80;;;;;;;10.35;100.00;92946.19;2110391;28;20019;-88
2021/08/04 01:33:03;;;;;;;2.10;1.85;;;;;;;10.36;100.00;92938.94;2104530;28;20027;-87
2021/08/04 01:34:06;;;;;;;2.40;1.70;;;;;;;10.36;100.00;92946.94;2111370;28;20022;-89
2021/08/04 01:35:09;;;;;;;2.25;1.70;;;;;;;10.37;100.00;92945.78;2107780;28;20630;-87
2021/08/04 01:36:10;;;;;;;2.17;1.60;;;;;;;10.36;100.00;92949.63;2103467;28;20028;-87
2021/08/04 01:37:12;;;;;;;1.73;1.63;;;;;;;10.34;100.00;92950.03;2105961;28;20481;-88
2021/08/04 01:38:16;;;;;;;3.10;1.80;;;;;;;10.35;100.00;92948.88;2101460;27;20662;-87
2021/08/04 01:39:20;;;;;;;2.85;2.00;;;;;;;10.37;100.00;92945.78;2098433;28;20802;-89
2021/08/04 01:40:21;;;;;;;1.70;1.60;;;;;;;10.34;100.00;92950.03;2091021;28;20060;-88
2021/08/04 01:41:23;;;;;;;2.92;1.80;;;;;;;10.36;100.00;92944.28;2089859;28;20021;-87
2021/08/04 01:42:26;;;;;;;2.60;1.80;;;;;;;10.36;100.00;92937.03;2107470;28;20016;-88
2021/08/04 01:43:28;;;;;;;2.13;1.75;;;;;;;10.38;100.00;92934.69;2114553;28;20043;-86
2021/08/04 01:44:32;;;;;;;1.90;1.80;;;;;;;10.38;100.00;92947.28;2102752;28;20098;-88
2021/08/04 01:45:33;;;;;;;2.58;1.85;;;;;;;10.37;100.00;92933.19;2098061;28;20012;-88
2021/08/04 01:46:36;;;;;;;3.60;1.60;;;;;;;10.37;100.00;92937.78;2099686;28;20027;-88
2021/08/04 01:47:38;;;;;;;1.60;1.48;;;;;;;10.36;100.00;92945.03;2113015;28;20110;-88
2021/08/04 01:48:40;;;;;;;4.65;1.88;;;;;;;10.38;100.00;92940.03;2112532;28;20026;-86
2021/08/04 01:49:43;;;;;;;1.67;1.58;;;;;;;10.29;100.00;92934.50;2101740;28;20028;-89
2021/08/04 01:50:44;;;;;;;1.77;1.50;;;;;;;10.30;100.00;92936.75;2098144;28;20062;-86
2021/08/04 01:51:48;;;;;;;2.42;1.90;;;;;;;10.34;100.00;92937.44;2089664;28;20021;-87
2021/08/04 01:52:50;;;;;;;1.75;1.40;;;;;;;10.32;100.00;92936.34;2097628;28;20111;-87
2021/08/04 01:53:52;;;;;;;2.47;1.58;;;;;;;10.37;100.00;92935.84;2097778;28;20103;-89
2021/08/04 01:54:55;;;;;;;2.00;1.75;;;;;;;10.32;100.00;92931.75;2089972;28;20037;-86
2021/08/04 01:55:56;;;;;;;9.18;2.20;;;;;;;10.28;100.00;92928.44;2099697;28;20081;-84
2021/08/04 01:56:57;;;;;;;2.00;1.90;;;;;;;10.25;100.00;92931.19;2111016;28;20103;-85
2021/08/04 01:57:58;;;;;;;4.10;1.90;;;;;;;10.23;100.00;92928.91;2101962;28;20023;-87
2021/08/04 01:58:59;;;;;;;1.45;1.35;;;;;;;10.21;100.00;92925.13;2089873;28;20359;-87
2021/08/04 02:00:00;;;;;;;1.65;1.55;;;;;;;10.27;100.00;92931.50;2106120;28;20070;-88
2021/08/04 02:01:01;;;;;;;1.90;1.80;;;;;;;10.30;100.00;92928.00;2101441;28;20016;-85
2021/08/04 02:02:15;;;;;;;1.73;1.60;;;;;;;10.31;100.00;92926.81;2105992;28;20027;-89
2021/08/04 02:03:16;;;;;;;3.30;1.90;;;;;;;10.32;100.00;92926.41;2110334;28;20050;-86
2021/08/04 02:04:17;;;;;;;1.90;1.70;;;;;;;10.34;100.00;92926.75;2105351;28;20021;-86
2021/08/04 02:05:18;;;;;;;3.35;1.80;;;;;;;10.38;100.00;92924.00;2095773;28;20116;-85
2021/08/04 02:06:35;;;;;;;2.58;1.73;;;;;;;10.37;100.00;92924.41;2097675;28;20448;-87
2021/08/04 02:07:53;;;;;;;3.10;1.65;;;;;;;10.31;100.00;92921.47;2107817;28;20105;-87
2021/08/04 02:09:07;;;;;;;4.63;1.60;;;;;;;10.31;100.00;92924.16;2114667;28;20588;-88
2021/08/04 02:10:14;;;;;;;4.10;1.80;;;;;;;10.27;100.00;92923.47;2120679;27;20027;-87
2021/08/04 02:12:00;;;;;;;4.00;1.77;;;;;;;10.23;100.00;92922.81;2105958;28;20381;-89
2021/08/04 02:13:15;;;;;;;2.13;1.85;;;;;;;10.27;100.00;92924.25;2085281;28;20028;-88
2021/08/04 02:14:20;;;;;;;1.70;1.60;;;;;;;10.26;100.00;92916.66;2099546;28;20024;-88
2021/08/04 02:15:22;;;;;;;7.50;1.88;;;;;;;10.26;100.00;92924.66;2102348;28;20076;-85
2021/08/04 02:16:44;;;;;;;1.70;1.60;;;;;;;10.27;100.00;92912.78;2097765;28;20413;-86
2021/08/04 02:17:54;;;;;;;3.17;2.00;;;;;;;10.27;100.00;92918.13;2108104;28;20066;-88
2021/08/04 02:19:19;;;;;;;2.17;1.85;;;;;;;10.25;100.00;92915.16;2107731;28;20024;-88
2021/08/04 02:20:35;;;;;;;5.22;2.10;;;;;;;10.27;100.00;92915.47;2104177;28;20035;-88
2021/08/04 02:21:39;;;;;;;3.42;1.73;;;;;;;10.27;100.00;92915.47;2098156;28;20056;-87
2021/08/04 02:22:53;;;;;;;1.75;1.65;;;;;;;10.33;100.00;92917.22;2098434;28;20020;-88
2021/08/04 02:23:54;;;;;;;3.17;1.55;;;;;;;10.34;100.00;92912.63;2093783;28;20025;-88
2021/08/04 02:25:14;;;;;;;2.13;1.85;;;;;;;10.32;100.00;92913.06;2091228;28;20158;-88
2021/08/04 02:26:18;;;;;;;3.95;1.85;;;;;;;10.29;100.00;92910.47;2100288;28;20157;-87
2021/08/04 02:27:19;;;;;;;3.25;1.73;;;;;;;10.27;100.00;92902.09;2095147;28;20029;-88
2021/08/04 02:28:26;;;;;;;4.07;1.80;;;;;;;10.19;100.00;92901.53;2097637;28;20028;-86
2021/08/04 02:29:35;;;;;;;2.75;1.70;;;;;;;10.18;100.00;92901.91;2106245;28;20031;-89
2021/08/04 02:30:36;;;;;;;5.88;1.77;;;;;;;10.22;100.00;92900.66;2114334;28;20024;-88
2021/08/04 02:31:38;;;;;;;2.55;1.52;;;;;;;10.28;100.00;92904.38;2104689;28;20104;-86
2021/08/04 02:32:39;;;;;;;2.25;1.83;;;;;;;10.26;100.00;92911.31;2097434;28;20031;-89
2021/08/04 02:33:42;;;;;;;3.45;1.55;;;;;;;10.26;100.00;92900.63;2090019;28;20070;-86
2021/08/04 02:34:43;;;;;;;2.33;1.67;;;;;;;10.28;100.00;92903.63;2101108;28;20097;-88
2021/08/04 02:35:45;;;;;;;3.38;1.80;;;;;;;10.26;100.00;92901.38;2102110;28;20527;-89
2021/08/04 02:36:46;;;;;;;3.40;1.90;;;;;;;10.22;100.00;92897.25;2097034;28;20021;-86
2021/08/04 02:37:48;;;;;;;1.50;1.38;;;;;;;10.22;100.00;92889.97;2105447;28;20047;-87
2021/08/04 02:38:49;;;;;;;1.80;1.70;;;;;;;10.20;100.00;92899.59;2105947;28;20032;-87
2021/08/04 02:39:50;;;;;;;2.67;1.52;;;;;;;10.19;100.00;92898.84;2101945;28;20478;-87
2021/08/04 02:40:51;;;;;;;2.40;1.88;;;;;;;10.23;100.00;92886.16;2097724;28;20047;-88
2021/08/04 02:41:53;;;;;;;2.30;2.00;;;;;;;10.17;100.00;92893.16;2104222;28;20028;-89
2021/08/04 02:42:55;;;;;;;2.13;1.75;;;;;;;10.15;100.00;92892.84;2105460;28;20115;-91
2021/08/04 02:43:56;;;;;;;2.10;1.90;;;;;;;10.15;100.00;92895.50;2109931;28;20143;-88
2021/08/04 02:44:57;;;;;;;4.05;1.95;;;;;;;10.17;100.00;92898.50;2106653;28;20027;-89
2021/08/04 02:45:59;;;;;;;2.78;1.95;;;;;;;10.14;100.00;92901.25;2105773;28;20491;-87
2021/08/04 02:47:00;;;;;;;3.45;1.90;;;;;;;10.14;100.00;92893.25;2096428;28;20036;-86
2021/08/04 02:48:01;;;;;;;4.90;2.15;;;;;;;10.21;100.00;92893.09;2103083;28;20032;-87
2021/08/04 02:49:03;;;;;;;3.30;2.00;;;;;;;10.24;100.00;92900.25;2103928;28;20035;-85
2021/08/04 02:50:06;;;;;;;2.63;1.88;;;;;;;10.19;100.00;92895.44;2105822;28;20115;-89
2021/08/04 02:51:13;;;;;;;5.03;2.10;;;;;;;10.24;100.00;92897.59;2103649;28;20094;-87
2021/08/04 02:52:17;;;;;;;8.27;2.20;;;;;;;10.26;100.00;92889.94;2104157;28;20021;-90
2021/08/04 02:53:19;;;;;;;2.58;1.70;;;;;;;10.28;100.00;92893.69;2096101;28;20028;-86
2021/08/04 02:54:20;;;;;;;2.33;1.70;;;;;;;10.20;100.00;92902.28;2097670;28;20765;-88
2021/08/04 02:55:22;;;;;;;2.63;1.80;;;;;;;10.20;100.00;92896.94;2102954;28;20152;-88
2021/08/04 02:56:24;;;;;;;1.80;1.70;;;;;;;10.21;100.00;92895.75;2103414;28;20099;-87
2021/08/04 02:57:25;;;;;;;3.30;2.05;;;;;;;10.22;100.00;92895.31;2110745;28;20023;-87
2021/08/04 02:58:26;;;;;;;2.10;1.95;;;;;;;10.24;100.00;92901.03;2105683;28;20020;-88
2021/08/04 02:59:27;;;;;;;3.50;2.00;;;;;;;10.20;100.00;92896.94;2094054;28;20032;-88
2021/08/04 03:00:28;;;;;;;2.10;1.55;;;;;;;10.22;100.00;92898.00;2105068;28;20024;-87
2021/08/04 03:01:29;;;;;;;3.95;2.00;;;;;;;10.18;100.00;92897.31;2103620;28;20027;-88
2021/08/04 03:02:30;;;;;;;4.82;1.75;;;;;;;10.18;100.00;92893.91;2108650;28;20020;-87
2021/08/04 03:03:31;;;;;;;3.20;1.55;;;;;;;10.20;100.00;92889.66;2111998;28;20031;-87
2021/08/04 03:04:32;;;;;;;2.83;1.90;;;;;;;10.13;100.00;92892.50;2108784;28;20028;-88
2021/08/04 03:05:33;;;;;;;4.03;1.90;;;;;;;10.19;100.00;92893.50;2101677;28;20055;-88
2021/08/04 03:06:34;;;;;;;2.30;2.10;;;;;;;10.16;100.00;92885.56;2105856;28;20181;-87
2021/08/04 03:07:35;;;;;;;3.92;1.80;;;;;;;10.14;100.00;92879.88;2097557;28;20111;-87
2021/08/04 03:08:37;;;;;;;2.80;1.65;;;;;;;10.15;100.00;92892.09;2112506;28;20024;-89
2021/08/04 03:09:38;;;;;;;3.33;1.88;;;;;;;10.09;100.00;92883.81;2105795;28;20572;-87
2021/08/04 03:10:39;;;;;;;3.60;2.13;;;;;;;10.13;100.00;92886.41;2107259;28;20024;-86
2021/08/04 03:11:40;;;;;;;2.97;1.90;;;;;;;10.12;100.00;92882.97;2107349;28;20050;-87
2021/08/04 03:12:41;;;;;;;4.18;1.92;;;;;;;10.12;100.00;92884.91;2095977;28;20535;-87
2021/08/04 03:13:42;;;;;;;1.70;1.60;;;;;;;10.18;100.00;92889.31;2106509;28;20044;-87
2021/08/04 03:14:43;;;;;;;3.05;1.88;;;;;;;10.16;100.00;92889.00;2107362;28;20016;-87
2021/08/04 03:15:44;;;;;;;2.38;1.95;;;;;;;10.18;100.00;92888.56;2101352;28;20048;-85
2021/08/04 03:16:45;;;;;;;3.28;2.20;;;;;;;10.18;100.00;92888.56;2091546;28;20027;-86
2021/08/04 03:17:46;;;;;;;6.20;2.15;;;;;;;10.19;100.00;92888.16;2104963;28;20514;-88
2021/08/04 03:18:47;;;;;;;2.03;1.63;;;;;;;10.18;100.00;92885.91;2107092;28;20032;-86
2021/08/04 03:19:48;;;;;;;2.60;2.20;;;;;;;10.14;100.00;92882.56;2107489;27;20032;-86
2021/08/04 03:20:49;;;;;;;3.05;2.30;;;;;;;10.16;100.00;92886.31;2105843;28;20024;-87
2021/08/04 03:21:50;;;;;;;1.95;1.80;;;;;;;10.18;100.00;92886.66;2110740;28;20455;-87
2021/08/04 03:22:51;;;;;;;2.15;1.95;;;;;;;10.17;100.00;92885.16;2105012;28;20023;-87
2021/08/04 03:23:52;;;;;;;2.55;1.88;;;;;;;10.16;100.00;92890.91;2103530;28;20491;-87
2021/08/04 03:24:53;;;;;;;2.30;2.10;;;;;;;10.16;100.00;92891.66;2121422;27;20030;-87
2021/08/04 03:25:54;;;;;;;4.35;2.20;;;;;;;10.14;100.00;92891.34;2113502;28;20024;-90
2021/08/04 03:26:55;;;;;;;2.20;2.00;;;;;;;10.20;100.00;92880.91;2107391;28;20070;-89
2021/08/04 03:27:55;;;;;;;2.28;1.83;;;;;;;10.14;100.00;92883.34;2107237;28;20086;-85
2021/08/04 03:28:56;;;;;;;7.07;2.05;;;;;;;10.17;100.00;92887.81;2116036;27;20092;-88
2021/08/04 03:29:57;;;;;;;4.40;1.90;;;;;;;10.17;100.00;92892.41;2107229;28;20035;-88
2021/08/04 03:30:58;;;;;;;2.20;2.00;;;;;;;10.18;100.00;92889.31;2110280;28;20057;-88
2021/08/04 03:31:59;;;;;;;3.28;2.10;;;;;;;10.15;100.00;92890.16;2112475;28;20051;-86
2021/08/04 03:33:00;;;;;;;2.30;2.10;;;;;;;10.09;100.00;92889.91;2105300;28;20031;-86
2021/08/04 03:34:01;;;;;;;2.25;1.73;;;;;;;10.11;100.00;92894.09;2102486;28;20111;-89
2021/08/04 03:35:04;;;;;;;3.38;1.85;;;;;;;10.04;100.00;92893.06;2095442;28;20032;-85
2021/08/04 03:36:05;;;;;;;3.42;2.00;;;;;;;10.11;100.00;92892.16;2104576;28;20034;-86
2021/08/04 03:37:06;;;;;;;2.20;2.00;;;;;;;10.17;100.00;92890.50;2112605;28;20863;-88
2021/08/04 03:38:07;;;;;;;2.35;2.03;;;;;;;10.18;100.00;92897.31;2090482;28;20448;-88
2021/08/04 03:39:07;;;;;;;6.55;2.53;;;;;;;10.25;100.00;92891.09;2103681;28;20028;-87
2021/08/04 03:40:10;;;;;;;3.30;1.98;;;;;;;10.21;100.00;92885.06;2100578;28;20028;-85
2021/08/04 03:41:11;;;;;;;2.08;1.85;;;;;;;10.19;100.00;92890.09;2092594;28;20119;-86
2021/08/04 03:42:15;;;;;;;5.65;2.28;;;;;;;10.17;100.00;92887.06;2107590;28;20453;-86
2021/08/04 03:43:16;;;;;;;3.58;2.08;;;;;;;10.18;100.00;92889.31;2117683;27;20031;-87
2021/08/04 03:44:17;;;;;;;3.85;2.30;;;;;;;10.21;100.00;92885.06;2105248;28;20508;-87
2021/08/04 03:45:18;;;;;;;5.50;2.20;;;;;;;10.18;100.00;92891.25;2097081;28;20032;-88
2021/08/04 03:46:19;;;;;;;3.72;2.25;;;;;;;10.12;100.00;92885.66;2098893;28;20039;-87
2021/08/04 03:47:20;;;;;;;3.42;2.10;;;;;;;10.15;100.00;92892.84;2092095;28;20048;-87
2021/08/04 03:48:21;;;;;;;2.63;2.15;;;;;;;10.15;100.00;92884.09;2101090;28;20100;-88
2021/08/04 03:49:22;;;;;;;2.67;2.05;;;;;;;10.13;100.00;92889.81;2106189;28;20028;-87
2021/08/04 03:50:23;;;;;;;3.95;2.38;;;;;;;10.12;100.00;92893.66;2104907;28;20020;-86
2021/08/04 03:51:24;;;;;;;3.78;2.00;;;;;;;10.08;100.00;92891.06;2098637;28;20119;-90
2021/08/04 03:52:25;;;;;;;2.35;1.80;;;;;;;10.13;100.00;92889.06;2098692;28;20381;-88
2021/08/04 03:53:26;;;;;;;3.08;2.20;;;;;;;10.11;100.00;92888.75;2098714;28;20106;-87
2021/08/04 03:54:27;;;;;;;2.42;1.95;;;;;;;10.14;100.00;92890.56;2106319;28;20020;-88
2021/08/04 03:55:28;;;;;;;1.98;1.88;;;;;;;10.10;100.00;92882.66;2092015;28;20082;-87
2021/08/04 03:56:29;;;;;;;2.67;2.20;;;;;;;10.09;100.00;92881.13;2095195;28;20094;-89
2021/08/04 03:57:29;;;;;;;5.38;2.10;;;;;;;10.12;100.00;92890.25;2101911;28;20016;-88
2021/08/04 03:58:30;;;;;;;4.65;2.25;;;;;;;10.06;100.00;92893.44;2107036;28;20028;-86
2021/08/04 03:59:31;;;;;;;2.22;2.05;;;;;;;10.07;100.00;92894.16;2095398;28;20055;-87
2021/08/04 04:00:32;;;;;;;1.98;1.88;;;;;;;10.08;100.00;92896.41;2096738;28;20029;-89
2021/08/04 04:01:33;;;;;;;4.53;2.33;;;;;;;10.04;100.00;92895.75;2101679;28;20028;-89
2021/08/04 04:02:34;;;;;;;14.32;4.13;;;;;;;10.04;100.00;92895.75;2098779;28;20050;-89
2021/08/04 04:03:35;;;;;;;3.15;2.35;;;;;;;10.02;100.00;92892.75;2111341;28;20088;-86
2021/08/04 04:04:36;;;;;;;2.28;2.08;;;;;;;10.00;100.00;92894.31;2098541;28;20024;-87
2021/08/04 04:05:37;;;;;;;2.20;2.00;;;;;;;10.01;100.00;92891.25;2107047;28;20016;-88
2021/08/04 04:06:38;;;;;;;4.63;2.35;;;;;;;10.00;100.00;92887.06;2105613;28;20052;-87
2021/08/04 04:07:39;;;;;;;3.90;2.75;;;;;;;10.06;100.00;92892.69;2101345;28;20485;-86
2021/08/04 04:08:40;;;;;;;2.13;1.73;;;;;;;10.09;100.00;92895.25;2107643;28;20016;-90
2021/08/04 04:09:41;;;;;;;3.40;2.20;;;;;;;10.12;100.00;92892.91;2111361;28;20020;-90
2021/08/04 04:10:42;;;;;;;5.35;2.35;;;;;;;10.14;100.00;92890.56;2104451;28;20028;-89
2021/08/04 04:11:43;;;;;;;3.42;2.20;;;;;;;10.05;100.00;92891.94;2104786;28;20023;-89
2021/08/04 04:12:44;;;;;;;3.38;2.35;;;;;;;10.05;100.00;92889.25;2092349;28;20033;-90
2021/08/04 04:13:45;;;;;;;3.38;2.22;;;;;;;10.09;100.00;92883.81;2102343;28;20024;-88
2021/08/04 04:14:46;;;;;;;3.25;2.38;;;;;;;10.07;100.00;92888.84;2099265;28;20705;-86
2021/08/04 04:15:53;;;;;;;5.80;2.65;;;;;;;9.98;100.00;92892.09;2106708;28;20047;-87
2021/08/04 04:16:54;;;;;;;2.70;2.15;;;;;;;10.02;100.00;92882.06;2114631;27;20437;-87
2021/08/04 04:17:55;;;;;;;5.10;2.67;;;;;;;10.11;100.00;92886.09;2109718;28;20028;-87
2021/08/04 04:18:56;;;;;;;3.10;2.10;;;;;;;10.15;100.00;92890.16;2111919;27;20027;-90
2021/08/04 04:19:57;;;;;;;3.70;2.30;;;;;;;10.15;100.00;92886.75;2112498;28;20430;-88
2021/08/04 04:20:58;;;;;;;4.43;2.50;;;;;;;10.12;100.00;92876.91;2106251;28;20024;-86
2021/08/04 04:21:59;;;;;;;2.42;2.22;;;;;;;10.15;100.00;92884.81;2115473;28;20508;-87
2021/08/04 04:23:01;;;;;;;2.58;2.38;;;;;;;10.11;100.00;92880.75;2117313;27;20023;-86
2021/08/04 04:24:03;;;;;;;5.70;2.38;;;;;;;10.04;100.00;92884.31;2103000;28;20477;-88
2021/08/04 04:25:04;;;;;;;4.95;2.42;;;;;;;10.06;100.00;92884.66;2107011;28;20020;-86
2021/08/04 04:26:05;;;;;;;2.60;2.40;;;;;;;10.12;100.00;92885.66;2107014;28;20016;-88
2021/08/04 04:27:06;;;;;;;3.75;2.38;;;;;;;10.09;100.00;92892.56;2101695;28;20058;-86
2021/08/04 04:28:07;;;;;;;3.78;2.55;;;;;;;10.05;100.00;92886.59;2098193;28;20398;-88
2021/08/04 04:29:08;;;;;;;2.63;2.40;;;;;;;10.14;100.00;92878.00;2099721;28;20672;-88
2021/08/04 04:30:11;;;;;;;2.55;2.35;;;;;;;10.11;100.00;92881.50;2093619;28;20035;-88
2021/08/04 04:31:11;;;;;;;3.65;2.63;;;;;;;10.18;100.00;92875.22;2102317;28;20382;-87
2021/08/04 04:32:12;;;;;;;2.70;2.50;;;;;;;10.14;100.00;92869.97;2099703;28;20039;-88
2021/08/04 04:33:13;;;;;;;4.55;2.88;;;;;;;10.11;100.00;92878.06;2093229;28;20028;-89
2021/08/04 04:34:14;;;;;;;3.40;3.05;;;;;;;10.09;100.00;92887.22;2093772;28;20669;-86
2021/08/04 04:35:15;;;;;;;3.42;2.17;;;;;;;10.12;100.00;92884.91;2104582;28;20066;-89
2021/08/04 04:36:16;;;;;;;3.80;3.05;;;;;;;10.09;100.00;92876.53;2097799;28;20115;-87
2021/08/04 04:37:17;;;;;;;3.50;2.75;;;;;;;10.17;100.00;92877.13;2096066;28;20025;-89
2021/08/04 04:38:18;;;;;;;5.38;2.83;;;;;;;10.19;100.00;92877.47;2090071;28;20049;-86
2021/08/04 04:39:19;;;;;;;2.90;2.60;;;;;;;10.19;100.00;92872.13;2106494;28;20651;-86
2021/08/04 04:40:20;;;;;;;5.18;3.08;;;;;;;10.19;100.00;92884.75;2089871;28;20024;-87
2021/08/04 04:41:21;;;;;;;4.65;2.75;;;;;;;10.16;100.00;92872.97;2093797;28;20021;-87
2021/08/04 04:42:22;;;;;;;3.42;3.13;;;;;;;10.15;100.00;92874.16;2102454;28;20681;-86
2021/08/04 04:43:23;;;;;;;4.43;2.75;;;;;;;10.11;100.00;92876.16;2104614;28;20028;-87
2021/08/04 04:44:24;;;;;;;2.83;2.60;;;;;;;10.14;100.00;92867.31;2106763;28;20020;-88
2021/08/04 04:45:25;;;;;;;6.75;2.90;;;;;;;10.18;100.00;92864.53;2122216;27;20027;-87
2021/08/04 04:46:26;;;;;;;6.25;3.05;;;;;;;10.19;100.00;92872.13;2106669;28;20130;-87
2021/08/04 04:47:27;;;;;;;3.70;2.90;;;;;;;10.20;100.00;92876.31;2106864;28;20427;-87
2021/08/04 04:48:28;;;;;;;3.40;2.90;;;;;;;10.20;100.00;92876.31;2106827;28;20051;-89
2021/08/04 04:49:29;;;;;;;3.92;2.72;;;;;;;10.17;100.00;92873.72;2098537;28;20040;-90
2021/08/04 04:50:32;;;;;;;5.93;2.75;;;;;;;10.19;100.00;92866.81;2092715;28;20466;-87
2021/08/04 04:51:33;;;;;;;3.92;2.80;;;;;;;10.15;100.00;92870.72;2103984;27;20103;-85
2021/08/04 04:52:40;;;;;;;5.78;2.67;;;;;;;10.14;100.00;92871.88;2115158;28;20095;-87